createdAt,value
2022-12-11T00:06:32.652Z,-0.5
2022-12-11T00:16:32.950Z,-0.5
2022-12-11T00:26:33.026Z,-0.6
2022-12-11T00:36:33.858Z,-0.6
2022-12-11T00:46:34.521Z,-0.6
2022-12-11T00:56:35.028Z,-0.6
2022-12-11T01:06:35.447Z,-0.6
2022-12-11T01:16:36.346Z,-0.5
2022-12-11T01:26:37.288Z,-0.5
2022-12-11T01:36:38.300Z,-0.4
2022-12-11T01:46:38.448Z,-0.5
2022-12-11T01:56:38.668Z,-0.4
2022-12-11T02:06:38.770Z,-0.4
2022-12-11T02:16:39.727Z,-0.4
2022-12-11T02:26:39.868Z,-0.4
2022-12-11T02:36:40.396Z,-0.4
2022-12-11T02:46:41.380Z,-0.4
2022-12-11T03:06:42.366Z,-0.4
2022-12-11T03:16:42.721Z,-0.4
2022-12-11T03:26:43.674Z,-0.3
2022-12-11T03:36:44.453Z,-0.2
2022-12-11T03:46:45.379Z,-0.2
2022-12-11T03:56:45.525Z,-0.2
2022-12-11T04:06:46.174Z,-0.2
2022-12-11T04:16:46.909Z,-0.1
2022-12-11T04:26:47.485Z,-0.1
2022-12-11T04:36:48.115Z,0
2022-12-11T04:46:48.995Z,0
2022-12-11T04:56:49.169Z,0
2022-12-11T05:16:50.000Z,0
2022-12-11T05:26:50.777Z,0
2022-12-11T05:36:50.969Z,0
2022-12-11T05:46:51.705Z,0
2022-12-11T05:56:52.619Z,0
2022-12-11T06:06:52.992Z,0
2022-12-11T06:16:53.744Z,0
2022-12-11T06:36:55.017Z,0
2022-12-11T06:46:55.766Z,0
2022-12-11T06:56:56.146Z,0
2022-12-11T07:16:57.544Z,0
2022-12-11T07:26:58.317Z,0.1
2022-12-11T07:36:58.564Z,0.1
2022-12-11T07:56:59.666Z,0.2
2022-12-11T08:07:00.719Z,0.2
2022-12-11T08:17:01.270Z,0.2
2022-12-11T08:37:02.734Z,0.3
2022-12-11T09:17:05.081Z,0.4
2022-12-11T09:27:06.023Z,0.5
2022-12-11T09:37:06.162Z,0.5
2022-12-11T09:47:06.697Z,0.5
2022-12-11T09:57:07.101Z,0.5
2022-12-11T10:07:07.781Z,0.5
2022-12-11T10:17:08.224Z,0.5
2022-12-11T10:27:08.350Z,0.6
2022-12-11T10:37:09.067Z,0.6
2022-12-11T10:47:09.154Z,0.6
2022-12-11T10:57:09.762Z,0.5
2022-12-11T11:07:10.256Z,0.6
2022-12-11T11:17:11.028Z,0.6
2022-12-11T11:27:13.590Z,0.6
2022-12-11T11:37:11.917Z,0.6
2022-12-11T11:47:12.994Z,0.6
2022-12-11T11:47:34.905Z,0.6
2022-12-11T11:57:19.588Z,0.6
2022-12-11T12:07:19.798Z,0.6
2022-12-11T12:17:20.546Z,0.6
2022-12-11T12:27:50.844Z,0.6
2022-12-11T12:37:21.644Z,0.6
2022-12-11T12:47:22.257Z,0.6
2022-12-11T12:57:23.029Z,0.7
2022-12-11T13:07:23.786Z,0.7
2022-12-11T13:17:24.250Z,0.7
2022-12-11T13:27:24.637Z,0.7
2022-12-11T13:37:25.368Z,0.7
2022-12-11T13:47:25.945Z,0.7
2022-12-11T13:57:26.268Z,0.7
2022-12-11T14:07:26.485Z,0.7
2022-12-11T14:17:27.213Z,0.8
2022-12-11T14:27:28.034Z,0.7
2022-12-11T14:37:28.966Z,0.7
2022-12-11T14:47:29.349Z,0.7
2022-12-11T14:57:30.365Z,0.8
2022-12-11T15:07:30.631Z,0.8
2022-12-11T15:17:30.910Z,0.8
2022-12-11T15:27:31.660Z,0.8
2022-12-11T15:37:32.532Z,0.8
2022-12-11T15:47:33.061Z,0.7
2022-12-11T15:57:33.826Z,0.7
2022-12-11T16:07:34.362Z,0.7
2022-12-11T16:17:35.051Z,0.7
2022-12-11T16:27:35.941Z,0.7
2022-12-11T16:37:36.246Z,0.7
2022-12-11T16:47:36.389Z,0.7
2022-12-11T16:57:37.255Z,0.7
2022-12-11T17:07:37.882Z,0.7
2022-12-11T17:17:37.993Z,0.6
2022-12-11T17:27:38.780Z,0.6
2022-12-11T17:37:38.975Z,0.6
2022-12-11T17:47:39.045Z,0.6
2022-12-11T17:57:39.819Z,0.6
2022-12-11T18:07:40.389Z,0.6
2022-12-11T18:17:41.065Z,0.6
2022-12-11T18:27:41.836Z,0.6
2022-12-11T18:37:42.575Z,0.6
2022-12-11T18:57:44.100Z,0.6
2022-12-11T19:07:44.533Z,0.6
2022-12-11T19:17:44.660Z,0.6
2022-12-11T19:27:45.734Z,0.7
2022-12-11T19:37:46.145Z,0.7
2022-12-11T19:47:46.773Z,0.7
2022-12-11T19:57:46.936Z,0.7
2022-12-11T20:07:47.192Z,0.6
2022-12-11T20:17:48.154Z,0.6
2022-12-11T20:27:48.503Z,0.6
2022-12-11T20:37:48.737Z,0.6
2022-12-11T20:47:48.830Z,0.6
2022-12-11T20:57:49.925Z,0.5
2022-12-11T21:07:50.748Z,0.5
2022-12-11T21:17:50.864Z,0.5
2022-12-11T21:27:51.214Z,0.5
2022-12-11T21:47:52.138Z,0.5
2022-12-11T21:57:53.220Z,0.5
2022-12-11T22:07:54.037Z,0.5
2022-12-11T22:17:54.182Z,0.5
2022-12-11T22:27:54.665Z,0.5
2022-12-11T22:37:55.520Z,0.5
2022-12-11T22:57:56.258Z,0.5
2022-12-11T23:07:56.631Z,0.5
2022-12-11T23:17:56.989Z,0.5
2022-12-11T23:27:57.519Z,0.5
2022-12-11T23:37:57.695Z,0.5
2022-12-11T23:47:58.283Z,0.5
2022-12-11T23:57:58.571Z,0.5
